createdAt,value
2018-11-25T00:01:42.109Z,1.02
2018-11-25T00:04:10.626Z,0.88
2018-11-25T00:06:39.146Z,0.82
2018-11-25T00:09:08.712Z,0.78
2018-11-25T00:11:37.208Z,0.76
2018-11-25T00:14:05.721Z,0.72
2018-11-25T00:16:34.241Z,0.64
2018-11-25T00:19:02.796Z,0.68
2018-11-25T00:21:31.313Z,0.82
2018-11-25T00:23:59.837Z,0.91
2018-11-25T00:26:28.361Z,0.94
2018-11-25T00:28:56.884Z,1.00
2018-11-25T00:31:25.406Z,1.03
2018-11-25T00:33:53.926Z,1.09
2018-11-25T00:36:22.728Z,1.18
2018-11-25T00:38:51.254Z,1.39
2018-11-25T00:41:19.774Z,1.47
2018-11-25T00:43:48.287Z,1.51
2018-11-25T00:46:16.840Z,1.62
2018-11-25T00:48:45.350Z,1.84
2018-11-25T00:51:13.889Z,2.00
2018-11-25T00:53:42.484Z,1.85
2018-11-25T00:56:11.047Z,1.65
2018-11-25T00:58:39.544Z,1.63
2018-11-25T01:01:08.995Z,1.56
2018-11-25T01:03:37.521Z,1.63
2018-11-25T01:06:06.044Z,1.58
2018-11-25T01:08:34.561Z,1.54
2018-11-25T01:11:03.979Z,1.52
2018-11-25T01:13:32.509Z,1.42
2018-11-25T01:16:01.013Z,1.39
2018-11-25T01:18:29.728Z,1.34
2018-11-25T01:20:58.240Z,1.35
2018-11-25T01:23:26.753Z,1.41
2018-11-25T01:25:55.285Z,1.44
2018-11-25T01:28:23.814Z,1.14
2018-11-25T01:30:52.553Z,1.10
2018-11-25T01:33:21.069Z,1.11
2018-11-25T01:35:49.593Z,1.12
2018-11-25T01:38:18.120Z,1.12
2018-11-25T01:40:46.643Z,1.24
2018-11-25T01:43:16.097Z,1.29
2018-11-25T01:45:44.687Z,1.37
2018-11-25T01:48:13.196Z,1.36
2018-11-25T01:50:41.728Z,1.34
2018-11-25T01:53:10.349Z,1.30
2018-11-25T01:55:38.878Z,1.43
2018-11-25T01:58:07.391Z,1.54
2018-11-25T02:00:35.926Z,1.56
2018-11-25T02:03:04.444Z,1.50
2018-11-25T02:05:32.971Z,1.42
2018-11-25T02:08:01.508Z,1.51
2018-11-25T02:10:30.058Z,1.48
2018-11-25T02:12:58.565Z,1.29
2018-11-25T02:15:27.097Z,1.24
2018-11-25T02:17:55.618Z,1.34
2018-11-25T02:20:24.256Z,1.39
2018-11-25T02:22:52.769Z,1.32
2018-11-25T02:25:21.299Z,1.32
2018-11-25T02:27:49.832Z,1.35
2018-11-25T02:30:18.378Z,1.28
2018-11-25T02:32:46.909Z,1.30
2018-11-25T02:35:15.426Z,1.43
2018-11-25T02:37:43.969Z,1.45
2018-11-25T02:40:12.477Z,1.49
2018-11-25T02:42:42.039Z,1.44
2018-11-25T02:45:10.589Z,1.36
2018-11-25T02:47:39.105Z,1.21
2018-11-25T02:50:07.622Z,1.15
2018-11-25T02:52:36.215Z,1.16
2018-11-25T02:55:04.748Z,1.21
2018-11-25T02:57:33.283Z,1.36
2018-11-25T03:00:01.807Z,1.52
2018-11-25T03:02:30.338Z,1.61
2018-11-25T03:04:58.855Z,1.62
2018-11-25T03:07:27.405Z,1.64
2018-11-25T03:09:55.925Z,1.52
2018-11-25T03:14:09.031Z,1.34
2018-11-25T03:16:38.104Z,1.04
2018-11-25T03:19:07.163Z,1.08
2018-11-25T03:21:36.254Z,1.21
2018-11-25T03:24:06.472Z,1.16
2018-11-25T03:26:34.416Z,0.98
2018-11-25T03:29:03.597Z,0.80
2018-11-25T03:31:32.638Z,0.84
2018-11-25T03:36:37.546Z,1.06
2018-11-25T03:39:06.781Z,1.16
2018-11-25T03:41:35.930Z,1.30
2018-11-25T03:44:04.976Z,1.24
2018-11-25T03:46:34.028Z,1.21
2018-11-25T03:49:03.091Z,0.98
2018-11-25T03:54:07.899Z,1.18
2018-11-25T03:56:37.052Z,1.09
2018-11-25T03:59:06.094Z,0.92
2018-11-25T04:01:35.150Z,0.88
2018-11-25T04:04:04.217Z,1.04
2018-11-25T04:06:34.266Z,1.10
2018-11-25T04:11:39.971Z,1.53
2018-11-25T04:14:09.043Z,1.34
2018-11-25T04:16:38.105Z,1.26
2018-11-25T04:19:07.170Z,1.16
2018-11-25T04:21:36.230Z,1.15
2018-11-25T04:26:41.035Z,0.97
2018-11-25T04:29:10.153Z,0.95
2018-11-25T04:31:39.275Z,1.17
2018-11-25T04:34:08.334Z,1.35
2018-11-25T04:36:37.438Z,1.17
2018-11-25T04:39:06.481Z,1.10
2018-11-25T04:44:11.283Z,0.98
2018-11-25T04:46:40.349Z,1.02
2018-11-25T04:49:09.503Z,1.18
2018-11-25T04:51:40.460Z,1.49
2018-11-25T04:54:09.518Z,1.54
2018-11-25T04:56:38.582Z,1.51
2018-11-25T04:59:07.634Z,1.64
2018-11-25T05:01:36.707Z,1.54
2018-11-25T05:04:05.772Z,1.64
2018-11-25T05:09:10.575Z,1.63
2018-11-25T05:16:51.691Z,1.58
2018-11-25T05:19:20.747Z,1.78
2018-11-25T05:21:49.815Z,1.88
2018-11-25T05:24:18.874Z,1.82
2018-11-25T05:26:47.922Z,1.70
2018-11-25T05:31:52.782Z,1.87
2018-11-25T05:34:21.845Z,1.74
2018-11-25T05:36:50.887Z,1.54
2018-11-25T05:39:19.962Z,1.69
2018-11-25T05:41:49.039Z,1.74
2018-11-25T05:46:53.803Z,1.75
2018-11-25T05:49:22.879Z,1.41
2018-11-25T05:51:51.943Z,1.41
2018-11-25T05:54:21.037Z,1.44
2018-11-25T05:57:05.026Z,1.33
2018-11-25T05:59:46.317Z,0.93
2018-11-25T06:02:15.996Z,0.87
2018-11-25T06:04:45.084Z,0.95
2018-11-25T06:07:16.493Z,0.89
2018-11-25T06:09:45.899Z,0.85
2018-11-25T06:12:15.658Z,0.83
2018-11-25T06:14:44.766Z,0.85
2018-11-25T06:17:13.828Z,0.96
2018-11-25T06:19:42.884Z,0.87
2018-11-25T06:22:12.010Z,0.84
2018-11-25T06:24:41.111Z,1.02
2018-11-25T06:27:10.179Z,1.02
2018-11-25T06:29:39.531Z,1.02
2018-11-25T06:32:08.590Z,1.11
2018-11-25T06:34:38.657Z,1.19
2018-11-25T06:37:07.769Z,1.52
2018-11-25T06:42:12.564Z,1.72
2018-11-25T06:44:41.612Z,1.66
2018-11-25T06:47:10.653Z,1.59
2018-11-25T06:49:39.710Z,1.80
2018-11-25T06:52:10.012Z,1.88
2018-11-25T06:54:39.078Z,1.85
2018-11-25T06:59:43.811Z,1.85
2018-11-25T07:02:12.885Z,1.78
2018-11-25T07:04:41.952Z,1.87
2018-11-25T07:07:11.983Z,1.97
2018-11-25T07:09:42.012Z,1.74
2018-11-25T07:14:46.851Z,1.80
2018-11-25T07:17:16.889Z,1.91
2018-11-25T07:19:45.943Z,1.87
2018-11-25T07:24:50.673Z,1.60
2018-11-25T07:27:19.739Z,1.59
2018-11-25T07:29:48.803Z,1.60
2018-11-25T07:32:19.910Z,1.80
2018-11-25T07:34:48.985Z,1.96
2018-11-25T07:37:18.078Z,1.74
2018-11-25T07:42:30.424Z,2.09
2018-11-25T07:44:59.480Z,2.02
2018-11-25T07:47:28.517Z,2.04
2018-11-25T07:49:57.569Z,2.18
2018-11-25T07:52:31.110Z,1.85
2018-11-25T07:55:01.133Z,2.06
2018-11-25T07:57:30.166Z,2.22
2018-11-25T07:59:59.216Z,2.10
2018-11-25T08:02:30.284Z,2.25
2018-11-25T08:04:59.347Z,2.30
2018-11-25T08:07:28.402Z,2.09
2018-11-25T08:09:57.447Z,2.19
2018-11-25T08:12:26.511Z,2.53
2018-11-25T08:14:55.610Z,2.66
2018-11-25T08:17:24.674Z,2.35
2018-11-25T08:19:53.732Z,2.63
2018-11-25T08:22:22.803Z,2.91
2018-11-25T08:24:51.850Z,2.73
2018-11-25T08:27:20.896Z,2.94
2018-11-25T08:29:49.945Z,3.17
2018-11-25T08:34:54.746Z,3.12
2018-11-25T08:37:27.392Z,3.07
2018-11-25T08:39:56.510Z,3.03
2018-11-25T08:42:25.553Z,2.93
2018-11-25T08:44:54.601Z,2.75
2018-11-25T08:47:23.731Z,2.98
2018-11-25T08:49:52.780Z,2.89
2018-11-25T08:52:21.834Z,2.41
2018-11-25T08:57:27.577Z,2.67
2018-11-25T08:59:56.595Z,2.59
2018-11-25T09:05:01.352Z,2.79
2018-11-25T09:10:06.631Z,3.11
2018-11-25T09:12:35.686Z,3.25
2018-11-25T09:15:04.893Z,3.13
2018-11-25T09:17:34.045Z,2.96
2018-11-25T09:20:03.075Z,2.93
2018-11-25T09:22:33.076Z,2.58
2018-11-25T09:25:02.114Z,2.68
2018-11-25T09:27:31.178Z,2.85
2018-11-25T09:32:35.971Z,3.13
2018-11-25T09:35:05.110Z,3.28
2018-11-25T09:37:34.163Z,3.07
2018-11-25T09:40:04.148Z,2.99
2018-11-25T09:42:33.220Z,2.79
2018-11-25T09:45:02.281Z,3.14
2018-11-25T09:47:33.342Z,3.28
2018-11-25T09:50:02.372Z,3.09
2018-11-25T09:52:31.449Z,2.97
2018-11-25T09:55:00.599Z,2.93
2018-11-25T09:57:29.621Z,3.06
2018-11-25T10:00:00.719Z,3.05
2018-11-25T10:02:30.674Z,3.11
2018-11-25T10:04:59.742Z,3.18
2018-11-25T10:07:28.802Z,2.46
2018-11-25T10:09:59.801Z,2.73
2018-11-25T10:12:28.850Z,2.57
2018-11-25T10:14:58.201Z,2.52
2018-11-25T10:17:27.243Z,2.03
2018-11-25T10:19:59.560Z,2.57
2018-11-25T10:22:40.373Z,2.42
2018-11-25T10:25:10.468Z,2.84
2018-11-25T10:27:39.538Z,3.09
2018-11-25T10:30:08.704Z,2.65
2018-11-25T10:32:38.014Z,2.77
2018-11-25T10:37:43.004Z,3.15
2018-11-25T10:40:12.094Z,3.38
2018-11-25T10:42:42.124Z,3.63
2018-11-25T10:45:11.480Z,3.54
2018-11-25T10:47:49.242Z,3.57
2018-11-25T10:52:55.014Z,4.05
2018-11-25T10:55:24.367Z,4.09
2018-11-25T10:58:02.035Z,3.82
2018-11-25T11:00:38.634Z,3.87
2018-11-25T11:03:16.865Z,4.19
2018-11-25T11:05:50.497Z,4.20
2018-11-25T11:11:00.868Z,3.73
2018-11-25T11:13:35.625Z,3.84
2018-11-25T11:16:10.423Z,3.89
2018-11-25T11:18:44.825Z,3.96
2018-11-25T11:21:18.479Z,3.59
2018-11-25T11:23:51.139Z,3.41
2018-11-25T11:26:25.183Z,3.42
2018-11-25T11:29:01.121Z,3.09
2018-11-25T11:31:34.851Z,3.45
2018-11-25T11:34:11.078Z,3.89
2018-11-25T11:36:44.138Z,4.01
2018-11-25T11:39:19.752Z,3.87
2018-11-25T11:41:52.814Z,4.24
2018-11-25T11:44:25.546Z,4.30
2018-11-25T11:47:01.064Z,4.30
2018-11-25T11:49:36.598Z,4.46
2018-11-25T11:52:11.551Z,4.45
2018-11-25T11:54:45.401Z,4.41
2018-11-25T11:57:20.646Z,4.59
2018-11-25T11:59:53.729Z,4.30
2018-11-25T12:02:31.499Z,4.48
2018-11-25T12:05:07.673Z,4.47
2018-11-25T12:07:42.806Z,4.43
2018-11-25T12:10:17.036Z,4.54
2018-11-25T12:12:49.345Z,4.54
2018-11-25T12:15:30.435Z,4.58
2018-11-25T12:17:59.198Z,4.65
2018-11-25T12:20:33.877Z,4.64
2018-11-25T12:23:08.853Z,4.65
2018-11-25T12:25:43.106Z,4.67
2018-11-25T12:32:08.460Z,5.11
2018-11-25T12:34:42.486Z,4.95
2018-11-25T12:37:15.733Z,4.91
2018-11-25T12:39:49.743Z,4.92
2018-11-25T12:42:24.451Z,4.97
2018-11-25T12:44:59.960Z,4.87
2018-11-25T12:47:46.374Z,4.96
2018-11-25T12:54:09.992Z,5.09
2018-11-25T12:56:51.650Z,5.25
2018-11-25T12:59:29.583Z,5.03
2018-11-25T13:02:02.294Z,5.04
2018-11-25T13:04:35.679Z,5.20
2018-11-25T13:07:10.057Z,5.33
2018-11-25T13:09:44.068Z,5.41
2018-11-25T13:12:18.369Z,5.18
2018-11-25T13:15:04.960Z,5.01
2018-11-25T13:17:41.158Z,5.08
2018-11-25T13:20:17.721Z,4.78
2018-11-25T13:22:55.836Z,4.70
2018-11-25T13:25:36.260Z,4.70
2018-11-25T13:28:18.965Z,4.89
2018-11-25T13:31:18.175Z,5.02
2018-11-25T13:33:52.238Z,4.73
2018-11-25T13:36:28.566Z,4.93
2018-11-25T13:39:02.686Z,4.89
2018-11-25T13:41:35.669Z,5.07
2018-11-25T13:44:08.195Z,5.18
2018-11-25T13:46:38.218Z,4.99
2018-11-25T13:49:07.290Z,4.73
2018-11-25T13:51:37.290Z,4.80
2018-11-25T13:54:06.421Z,4.85
2018-11-25T13:56:39.389Z,4.90
2018-11-25T13:59:12.359Z,4.82
2018-11-25T14:04:35.960Z,5.21
2018-11-25T14:07:07.653Z,5.13
2018-11-25T14:10:17.812Z,5.08
2018-11-25T14:12:47.214Z,5.19
2018-11-25T14:15:16.428Z,5.10
2018-11-25T14:17:45.671Z,5.24
2018-11-25T14:20:15.407Z,5.11
2018-11-25T14:22:46.588Z,4.98
2018-11-25T14:25:15.821Z,5.00
2018-11-25T14:28:28.115Z,5.17
2018-11-25T14:30:57.492Z,5.25
2018-11-25T14:33:26.783Z,5.12
2018-11-25T14:35:55.900Z,5.37
2018-11-25T14:38:24.954Z,5.38
2018-11-25T14:40:54.022Z,5.14
2018-11-25T14:43:30.815Z,5.17
2018-11-25T14:49:48.889Z,5.25
2018-11-25T14:52:18.335Z,5.09
2018-11-25T14:54:53.519Z,5.16
2018-11-25T14:57:22.736Z,5.29
2018-11-25T14:59:51.803Z,5.18
2018-11-25T15:02:20.958Z,4.93
2018-11-25T15:04:50.012Z,4.94
2018-11-25T15:07:19.080Z,5.13
2018-11-25T15:09:48.147Z,5.28
2018-11-25T15:12:17.236Z,5.34
2018-11-25T15:14:46.302Z,5.14
2018-11-25T15:17:15.409Z,5.21
2018-11-25T15:19:44.485Z,5.30
2018-11-25T15:22:13.526Z,5.19
2018-11-25T15:24:42.571Z,5.28
2018-11-25T15:27:12.519Z,5.28
2018-11-25T15:29:41.581Z,5.22
2018-11-25T15:32:10.614Z,5.13
2018-11-25T15:34:51.833Z,5.04
2018-11-25T15:37:20.854Z,5.09
2018-11-25T15:39:50.550Z,4.94
2018-11-25T15:42:19.629Z,5.17
2018-11-25T15:44:49.866Z,5.04
2018-11-25T15:47:18.927Z,5.17
2018-11-25T15:49:48.653Z,5.07
2018-11-25T15:52:17.814Z,5.03
2018-11-25T15:54:46.852Z,4.96
2018-11-25T15:57:15.904Z,5.05
2018-11-25T15:59:45.024Z,4.91
2018-11-25T16:02:14.997Z,4.91
2018-11-25T16:04:44.907Z,4.89
2018-11-25T16:07:13.933Z,4.71
2018-11-25T16:09:43.107Z,4.84
2018-11-25T16:12:12.183Z,4.79
2018-11-25T16:14:41.225Z,4.93
2018-11-25T16:17:15.641Z,4.91
2018-11-25T16:19:44.681Z,4.76
2018-11-25T16:22:13.750Z,4.82
2018-11-25T16:24:42.795Z,4.85
2018-11-25T16:27:11.823Z,4.93
2018-11-25T16:29:42.319Z,4.74
2018-11-25T16:32:11.400Z,4.71
2018-11-25T16:34:40.470Z,4.82
2018-11-25T16:37:09.551Z,4.83
2018-11-25T16:39:38.605Z,4.85
2018-11-25T16:42:07.642Z,4.85
2018-11-25T16:44:36.691Z,4.70
2018-11-25T16:47:05.732Z,4.71
2018-11-25T16:49:34.796Z,4.72
2018-11-25T16:52:03.982Z,4.81
2018-11-25T16:54:33.018Z,4.80
2018-11-25T16:57:02.080Z,4.52
2018-11-25T16:59:31.222Z,4.55
2018-11-25T17:02:00.291Z,4.55
2018-11-25T17:04:29.358Z,4.46
2018-11-25T17:06:58.486Z,4.26
2018-11-25T17:09:27.535Z,4.28
2018-11-25T17:11:56.708Z,4.23
2018-11-25T17:14:33.601Z,4.22
2018-11-25T17:16:55.678Z,4.11
2018-11-25T17:19:24.883Z,4.04
2018-11-25T17:21:54.102Z,4.02
2018-11-25T17:24:23.169Z,4.09
2018-11-25T17:26:52.209Z,4.32
2018-11-25T17:29:21.935Z,4.39
2018-11-25T17:31:50.990Z,4.38
2018-11-25T17:34:20.039Z,4.42
2018-11-25T17:36:50.070Z,4.26
2018-11-25T17:39:19.150Z,4.29
2018-11-25T17:41:48.265Z,4.16
2018-11-25T17:44:22.052Z,4.05
2018-11-25T17:46:51.274Z,3.98
2018-11-25T17:49:20.336Z,3.97
2018-11-25T17:51:49.371Z,4.04
2018-11-25T17:54:18.423Z,4.14
2018-11-25T17:56:47.470Z,4.03
2018-11-25T17:59:17.520Z,4.01
2018-11-25T18:01:46.567Z,3.90
2018-11-25T18:04:15.622Z,4.03
2018-11-25T18:06:44.693Z,3.95
2018-11-25T18:09:13.793Z,4.03
2018-11-25T18:11:42.821Z,3.89
2018-11-25T18:14:11.884Z,3.91
2018-11-25T18:16:40.955Z,3.85
2018-11-25T18:19:10.006Z,3.82
2018-11-25T18:21:39.233Z,3.83
2018-11-25T18:24:08.400Z,3.86
2018-11-25T18:26:47.959Z,3.87
2018-11-25T18:29:17.003Z,3.94
2018-11-25T18:31:46.079Z,3.95
2018-11-25T18:34:15.115Z,3.87
2018-11-25T18:36:44.167Z,3.91
2018-11-25T18:39:13.211Z,4.03
2018-11-25T18:41:42.272Z,4.07
2018-11-25T18:44:12.332Z,4.03
2018-11-25T18:46:46.563Z,3.93
2018-11-25T18:49:10.888Z,3.98
2018-11-25T18:51:41.984Z,3.87
2018-11-25T18:54:11.046Z,3.84
2018-11-25T18:56:40.172Z,3.91
2018-11-25T18:59:09.209Z,3.97
2018-11-25T19:01:39.163Z,3.95
2018-11-25T19:04:08.261Z,3.92
2018-11-25T19:06:38.226Z,3.78
2018-11-25T19:09:07.322Z,3.87
2018-11-25T19:11:36.371Z,3.84
2018-11-25T19:14:05.421Z,3.81
2018-11-25T19:16:35.439Z,3.89
2018-11-25T19:19:04.479Z,3.92
2018-11-25T19:21:33.614Z,3.87
2018-11-25T19:24:02.637Z,3.77
2018-11-25T19:26:31.697Z,3.76
2018-11-25T19:29:00.856Z,3.75
2018-11-25T19:31:29.916Z,3.78
2018-11-25T19:34:10.629Z,3.84
2018-11-25T19:36:40.161Z,3.99
2018-11-25T19:39:09.375Z,4.00
2018-11-25T19:41:38.498Z,3.95
2018-11-25T19:44:07.585Z,4.08
2018-11-25T19:46:36.620Z,4.09
2018-11-25T19:49:05.678Z,4.25
2018-11-25T19:51:34.755Z,4.23
2018-11-25T19:54:03.857Z,4.03
2018-11-25T19:56:32.964Z,3.93
2018-11-25T19:59:02.042Z,3.97
2018-11-25T20:01:31.150Z,3.93
2018-11-25T20:04:00.199Z,3.94
2018-11-25T20:06:29.253Z,3.91
2018-11-25T20:08:58.400Z,3.90
2018-11-25T20:11:27.713Z,3.98
2018-11-25T20:13:57.124Z,3.89
2018-11-25T20:16:26.553Z,3.94
2018-11-25T20:18:55.728Z,3.92
2018-11-25T20:21:24.780Z,4.16
2018-11-25T20:23:53.871Z,4.12
2018-11-25T20:26:22.920Z,4.38
2018-11-25T20:28:52.019Z,4.50
2018-11-25T20:31:21.189Z,4.45
2018-11-25T20:33:52.388Z,4.50
2018-11-25T20:36:19.362Z,4.52
2018-11-25T20:39:05.066Z,4.30
2018-11-25T20:41:34.138Z,4.39
2018-11-25T20:44:03.212Z,4.61
2018-11-25T20:49:26.866Z,4.36
2018-11-25T20:51:56.197Z,4.45
2018-11-25T20:54:25.252Z,4.52
2018-11-25T20:56:54.293Z,4.54
2018-11-25T20:59:23.370Z,4.35
2018-11-25T21:01:52.466Z,4.19
2018-11-25T21:04:21.490Z,4.31
2018-11-25T21:06:50.661Z,4.42
2018-11-25T21:09:19.706Z,4.26
2018-11-25T21:14:24.726Z,4.27
2018-11-25T21:21:32.106Z,4.13
2018-11-25T21:24:02.396Z,4.18
2018-11-25T21:26:32.563Z,4.14
2018-11-25T21:31:37.339Z,4.32
2018-11-25T21:34:06.434Z,4.22
2018-11-25T21:36:35.508Z,4.29
2018-11-25T21:39:05.680Z,4.25
2018-11-25T21:41:34.957Z,4.27
2018-11-25T21:44:04.373Z,4.19
2018-11-25T21:46:33.588Z,4.37
2018-11-25T21:49:02.761Z,4.15
2018-11-25T21:51:31.823Z,4.28
2018-11-25T21:54:00.879Z,4.27
2018-11-25T21:56:30.956Z,4.17
2018-11-25T22:01:36.010Z,4.07
2018-11-25T22:04:12.632Z,4.20
2018-11-25T22:06:41.778Z,4.21
2018-11-25T22:09:11.842Z,4.26
2018-11-25T22:11:43.765Z,4.26
2018-11-25T22:14:14.257Z,4.26
2018-11-25T22:16:43.688Z,4.39
2018-11-25T22:19:12.872Z,4.43
2018-11-25T22:21:42.157Z,4.24
2018-11-25T22:24:11.267Z,4.16
2018-11-25T22:26:40.476Z,4.30
2018-11-25T22:29:10.703Z,4.36
2018-11-25T22:31:39.775Z,4.37
2018-11-25T22:34:08.914Z,4.39
2018-11-25T22:36:37.997Z,4.53
2018-11-25T22:39:07.127Z,4.37
2018-11-25T22:41:36.230Z,4.43
2018-11-25T22:44:05.338Z,4.04
2018-11-25T22:46:34.497Z,4.32
2018-11-25T22:51:39.349Z,4.41
2018-11-25T22:54:11.237Z,4.36
2018-11-25T22:56:40.317Z,4.38
2018-11-25T22:59:09.922Z,4.27
2018-11-25T23:01:39.085Z,4.40
2018-11-25T23:04:25.802Z,4.37
2018-11-25T23:06:54.854Z,4.39
2018-11-25T23:09:23.915Z,4.54
2018-11-25T23:11:52.966Z,4.51
2018-11-25T23:14:22.022Z,4.42
2018-11-25T23:16:51.090Z,4.38
2018-11-25T23:19:20.177Z,4.55
2018-11-25T23:24:24.912Z,4.46
2018-11-25T23:26:54.080Z,4.48
2018-11-25T23:29:31.914Z,4.52
2018-11-25T23:37:13.334Z,4.44
2018-11-25T23:39:42.382Z,4.35
2018-11-25T23:42:13.138Z,4.32
2018-11-25T23:44:42.406Z,4.35
2018-11-25T23:47:11.443Z,4.45
2018-11-25T23:49:40.487Z,4.44
2018-11-25T23:52:09.543Z,4.44
2018-11-25T23:54:38.603Z,4.36
2018-11-25T23:57:08.559Z,4.33
2018-11-25T23:59:37.651Z,4.41
